Etusivu
METAR-TAF:

METAR-TAF

Lentoasemat :

Albertus Airport

Freeport, Illinois, Yhdysvallat

Leveyspiiri: 42-14-47N, Pituuspiiri: 089-34-56W, korkeus merenpinnasta: 262 m

Tämänhetkinen sää

Tämä raportti tehtiin 24 minuuttia sitten, kello 16.55 UTC
Tuuli 8 kn pohjoisen/luoteesta
Lämpötila 19°C
Kosteus 78%
Ilmanpaine 1009 hPa
Näkyvyys: 16.1 km
Hajanaisia pilviä 1900 ft:n korkeudessa
Hajonneita pilviä 2600 ft:n korkeudessa
Hajonneita pilviä 3100 ft:n korkeudessa

METAR: KFEP 201655Z AUTO 34008KT 10SM SCT019 BKN026 BKN031 19/15 A2979 RMK AO2 T01920154

Aika: 12:19 (17:19 UTC)


TAF: puuttuu

Säähavainnot ja -ennusteet yli 4000 lentoasemalta (METAR- ja TAF-raportit).

Käytössä olevat sääasemat on merkitty karttaan keltaisilla ja punaisilla pisteillä.

Aseta hiiri pisteen päälle nähdäksesi sääaseman nimen.

Klikkaa sitten nähdäksesi säähavainnot ja -ennusteet.

Kartan vaihtaminen: klikkaa mustalla rastilla varustettuja vihreitä pisteitä, niin voit zoomata sisään; viivalla varustettua vihreää pistettä, niin voit zoomata ulos tai vihreitä nuolia, niin pääset viereisille kartoille.


METAR-TAF: